createdAt,value
2022-11-21T00:01:27.105Z,21.75
2022-11-21T00:03:54.089Z,13.20
2022-11-21T00:06:22.273Z,15.40
2022-11-21T00:08:49.334Z,11.88
2022-11-21T00:11:16.665Z,17.08
2022-11-21T00:13:44.443Z,13.60
2022-11-21T00:16:14.665Z,16.45
2022-11-21T00:18:42.629Z,13.23
2022-11-21T00:21:15.299Z,14.80
2022-11-21T00:23:43.375Z,13.90
2022-11-21T00:26:12.196Z,20.27
2022-11-21T00:28:39.327Z,14.25
2022-11-21T00:31:06.852Z,18.83
2022-11-21T00:33:39.479Z,17.50
2022-11-21T00:36:09.997Z,21.65
2022-11-21T00:38:37.763Z,19.83
2022-11-21T00:41:05.802Z,21.30
2022-11-21T00:43:33.064Z,18.48
2022-11-21T00:46:03.201Z,22.10
2022-11-21T00:48:32.219Z,21.08
2022-11-21T00:51:01.097Z,22.75
2022-11-21T00:53:28.657Z,15.02
2022-11-21T00:55:55.780Z,21.70
2022-11-21T00:58:22.733Z,19.10
2022-11-21T01:00:50.066Z,13.35
2022-11-21T01:03:17.645Z,18.98
2022-11-21T01:05:45.290Z,21.15
2022-11-21T01:08:12.368Z,28.30
2022-11-21T01:10:39.286Z,19.92
2022-11-21T01:13:06.679Z,22.58
2022-11-21T01:15:34.390Z,24.85
2022-11-21T01:18:01.218Z,21.50
2022-11-21T01:20:28.236Z,25.75
2022-11-21T01:22:55.326Z,16.45
2022-11-21T01:25:22.470Z,18.73
2022-11-21T01:27:49.648Z,16.65
2022-11-21T01:30:17.805Z,22.10
2022-11-21T01:32:48.456Z,18.35
2022-11-21T01:35:16.312Z,31.80
2022-11-21T01:37:43.596Z,22.52
2022-11-21T01:40:11.631Z,26.80
2022-11-21T01:43:10.318Z,27.45
2022-11-21T01:46:00.042Z,24.50
2022-11-21T01:48:41.383Z,31.13
2022-11-21T01:51:32.816Z,31.88
2022-11-21T01:54:06.604Z,32.28
2022-11-21T01:57:02.043Z,35.75
2022-11-21T01:59:40.960Z,30.38
2022-11-21T02:02:10.300Z,33.88
2022-11-21T02:04:39.545Z,32.03
2022-11-21T02:07:08.316Z,32.58
2022-11-21T02:09:39.766Z,39.83
2022-11-21T02:12:18.396Z,26.52
2022-11-21T02:14:45.551Z,30.23
2022-11-21T02:17:12.549Z,40.38
2022-11-21T02:20:05.639Z,26.70
2022-11-21T02:23:13.042Z,34.78
2022-11-21T02:25:42.461Z,30.73
2022-11-21T02:28:13.485Z,27.10
2022-11-21T02:30:42.661Z,30.52
2022-11-21T02:33:11.329Z,22.42
2022-11-21T02:35:39.648Z,25.38
2022-11-21T02:38:29.199Z,23.60
2022-11-21T02:41:32.484Z,31.77
2022-11-21T02:44:05.600Z,31.10
2022-11-21T02:46:35.331Z,33.42
2022-11-21T02:49:06.819Z,31.92
2022-11-21T02:54:00.514Z,26.65
2022-11-21T02:56:30.543Z,21.50
2022-11-21T02:58:57.849Z,29.27
2022-11-21T03:01:25.040Z,32.90
2022-11-21T03:03:53.294Z,27.73
2022-11-21T03:06:20.325Z,37.15
2022-11-21T03:08:47.236Z,28.48
2022-11-21T03:11:14.309Z,31.13
2022-11-21T03:13:42.007Z,24.20
2022-11-21T03:16:09.004Z,41.75
2022-11-21T03:18:37.536Z,32.13
2022-11-21T03:21:05.003Z,38.85
2022-11-21T03:23:32.029Z,34.10
2022-11-21T03:26:00.388Z,27.88
2022-11-21T03:28:27.404Z,29.17
2022-11-21T03:30:54.327Z,24.02
2022-11-21T03:33:21.482Z,41.70
2022-11-21T03:35:48.479Z,38.13
2022-11-21T03:38:15.546Z,32.30
2022-11-21T03:40:42.532Z,42.25
2022-11-21T03:43:09.901Z,34.40
2022-11-21T03:45:36.918Z,36.38
2022-11-21T03:48:04.156Z,29.70
2022-11-21T03:50:31.311Z,30.23
2022-11-21T03:52:59.335Z,28.52
2022-11-21T03:55:26.294Z,37.00
2022-11-21T03:57:53.273Z,27.73
2022-11-21T04:00:20.435Z,27.15
2022-11-21T04:02:47.802Z,32.40
2022-11-21T04:05:15.189Z,39.47
2022-11-21T04:07:42.119Z,34.35
2022-11-21T04:10:09.522Z,22.27
2022-11-21T04:12:36.640Z,41.85
2022-11-21T04:15:04.652Z,34.13
2022-11-21T04:17:33.881Z,41.00
2022-11-21T04:20:00.708Z,36.30
2022-11-21T04:22:27.930Z,36.28
2022-11-21T04:24:54.850Z,40.15
2022-11-21T04:27:21.889Z,33.72
2022-11-21T04:29:48.936Z,24.55
2022-11-21T04:32:15.871Z,21.52
2022-11-21T04:34:42.840Z,26.60
2022-11-21T04:37:11.779Z,41.88
2022-11-21T04:39:38.931Z,39.30
2022-11-21T04:42:05.842Z,27.45
2022-11-21T04:44:32.966Z,31.65
2022-11-21T04:47:05.034Z,33.65
2022-11-21T04:49:33.021Z,37.28
2022-11-21T04:51:59.907Z,38.58
2022-11-21T04:54:27.292Z,40.17
2022-11-21T04:56:54.581Z,42.92
2022-11-21T04:59:21.812Z,34.67
2022-11-21T05:01:48.824Z,44.00
2022-11-21T05:04:16.046Z,48.47
2022-11-21T05:06:43.097Z,41.90
2022-11-21T05:09:10.564Z,45.00
2022-11-21T05:11:56.529Z,32.83
2022-11-21T05:14:26.936Z,35.83
2022-11-21T05:16:54.862Z,23.50
2022-11-21T05:19:22.138Z,34.75
2022-11-21T05:21:51.070Z,27.45
2022-11-21T05:24:18.333Z,38.45
2022-11-21T05:26:46.464Z,38.60
2022-11-21T05:29:14.421Z,36.65
2022-11-21T05:31:41.638Z,29.85
2022-11-21T05:34:09.577Z,31.60
2022-11-21T05:36:36.922Z,26.52
2022-11-21T05:39:05.133Z,34.67
2022-11-21T05:41:33.030Z,29.05
2022-11-21T05:44:00.112Z,25.08
2022-11-21T05:46:27.558Z,39.25
2022-11-21T05:48:56.056Z,33.03
2022-11-21T05:51:23.654Z,32.28
2022-11-21T05:53:51.678Z,32.00
2022-11-21T05:56:23.355Z,36.85
2022-11-21T05:58:50.682Z,34.05
2022-11-21T06:01:41.017Z,35.58
2022-11-21T06:04:09.199Z,48.28
2022-11-21T06:06:37.147Z,39.05
2022-11-21T06:09:04.889Z,43.63
2022-11-21T06:11:32.475Z,50.90
2022-11-21T06:13:59.632Z,48.70
2022-11-21T06:16:27.208Z,59.58
2022-11-21T06:18:58.808Z,49.30
2022-11-21T06:21:29.160Z,43.53
2022-11-21T06:23:58.895Z,51.38
2022-11-21T06:26:28.122Z,44.50
2022-11-21T06:28:56.192Z,43.17
2022-11-21T06:31:25.611Z,40.30
2022-11-21T06:33:55.516Z,46.97
2022-11-21T06:36:28.139Z,67.78
2022-11-21T06:38:56.923Z,56.58
2022-11-21T06:41:26.944Z,48.20
2022-11-21T06:43:54.290Z,40.42
2022-11-21T06:46:22.226Z,42.33
2022-11-21T06:48:53.353Z,69.63
2022-11-21T06:51:22.635Z,71.15
2022-11-21T06:53:58.579Z,73.70
2022-11-21T06:56:28.927Z,57.97
2022-11-21T06:58:57.752Z,56.47
2022-11-21T07:01:28.079Z,51.45
2022-11-21T07:03:56.061Z,41.60
2022-11-21T07:06:24.220Z,47.13
2022-11-21T07:09:25.367Z,46.45
2022-11-21T07:11:42.549Z,67.45
2022-11-21T07:14:10.851Z,62.72
2022-11-21T07:16:40.877Z,58.95
2022-11-21T07:19:09.292Z,45.00
2022-11-21T07:21:36.493Z,47.30
2022-11-21T07:24:04.507Z,28.38
2022-11-21T07:26:32.114Z,24.08
2022-11-21T07:29:01.394Z,20.55
2022-11-21T07:31:31.510Z,26.73
2022-11-21T07:33:59.521Z,22.13
2022-11-21T07:36:26.847Z,21.95
2022-11-21T07:38:55.641Z,20.80
2022-11-21T07:41:22.949Z,26.60
2022-11-21T07:43:53.128Z,20.77
2022-11-21T07:46:20.658Z,19.48
2022-11-21T07:48:48.317Z,18.23
2022-11-21T07:51:15.341Z,26.05
2022-11-21T07:53:42.981Z,22.88
2022-11-21T07:56:13.637Z,21.60
2022-11-21T07:58:41.053Z,23.13
2022-11-21T08:01:09.037Z,24.23
2022-11-21T08:03:37.108Z,25.65
2022-11-21T08:06:07.400Z,21.67
2022-11-21T08:08:35.192Z,23.30
2022-11-21T08:11:06.288Z,22.95
2022-11-21T08:13:34.631Z,23.38
2022-11-21T08:16:05.864Z,13.95
2022-11-21T08:18:34.029Z,18.60
2022-11-21T08:21:02.918Z,18.67
2022-11-21T08:23:31.139Z,15.85
2022-11-21T08:25:59.164Z,16.13
2022-11-21T08:28:26.689Z,14.18
2022-11-21T08:30:54.552Z,14.88
2022-11-21T08:33:24.167Z,13.40
2022-11-21T08:35:51.341Z,15.60
2022-11-21T08:38:18.603Z,13.38
2022-11-21T08:40:48.129Z,14.38
2022-11-21T08:43:15.547Z,11.02
2022-11-21T08:45:46.218Z,9.02
2022-11-21T08:48:13.456Z,14.20
2022-11-21T08:50:41.077Z,9.52
2022-11-21T08:53:08.369Z,9.07
2022-11-21T08:55:36.424Z,5.88
2022-11-21T08:58:03.947Z,16.75
2022-11-21T09:00:32.325Z,9.85
2022-11-21T09:02:59.335Z,10.43
2022-11-21T09:05:26.920Z,6.75
2022-11-21T09:07:58.324Z,5.60
2022-11-21T09:10:29.608Z,10.85
2022-11-21T09:13:01.424Z,5.30
2022-11-21T09:15:48.010Z,7.95
2022-11-21T09:18:17.881Z,10.40
2022-11-21T09:20:48.068Z,6.45
2022-11-21T09:23:16.118Z,5.40
2022-11-21T09:25:47.037Z,5.20
2022-11-21T09:28:16.270Z,4.50
2022-11-21T09:30:44.311Z,3.75
2022-11-21T09:33:13.611Z,4.60
2022-11-21T09:35:41.495Z,7.53
2022-11-21T09:38:11.161Z,4.30
2022-11-21T09:40:46.693Z,4.30
2022-11-21T09:44:06.207Z,3.70
2022-11-21T09:46:42.272Z,4.30
2022-11-21T09:49:13.333Z,4.18
2022-11-21T09:51:44.236Z,4.35
2022-11-21T09:54:27.517Z,3.85
2022-11-21T09:57:01.480Z,3.42
2022-11-21T09:59:45.252Z,4.47
2022-11-21T10:02:18.662Z,4.97
2022-11-21T10:04:47.192Z,8.75
2022-11-21T10:07:14.407Z,3.00
2022-11-21T10:10:09.476Z,2.03
2022-11-21T10:12:40.337Z,2.20
2022-11-21T10:15:26.691Z,3.90
2022-11-21T10:18:15.849Z,1.33
2022-11-21T10:21:14.099Z,1.38
2022-11-21T10:23:51.967Z,1.60
2022-11-21T10:26:41.122Z,1.33
2022-11-21T10:29:19.086Z,3.53
2022-11-21T10:31:47.308Z,2.40
2022-11-21T10:34:20.263Z,3.95
2022-11-21T10:36:55.794Z,3.00
2022-11-21T10:39:46.353Z,4.30
2022-11-21T10:42:25.918Z,2.75
2022-11-21T10:45:11.991Z,2.80
2022-11-21T10:47:39.932Z,2.90
2022-11-21T10:50:10.435Z,21.63
2022-11-21T10:52:51.084Z,4.40
2022-11-21T10:55:18.934Z,9.60
2022-11-21T10:57:54.674Z,3.25
2022-11-21T11:00:27.587Z,1.48
2022-11-21T11:03:04.419Z,4.68
2022-11-21T11:05:34.550Z,1.65
2022-11-21T11:08:04.232Z,1.47
2022-11-21T11:10:33.913Z,1.40
2022-11-21T11:16:10.676Z,1.73
2022-11-21T11:18:58.896Z,1.42
2022-11-21T11:21:41.821Z,3.05
2022-11-21T11:24:11.786Z,1.85
2022-11-21T11:26:49.290Z,1.40
2022-11-21T11:29:22.392Z,1.63
2022-11-21T11:32:04.486Z,2.17
2022-11-21T11:34:49.579Z,2.13
2022-11-21T11:37:40.858Z,2.65
2022-11-21T11:40:17.770Z,2.25
2022-11-21T11:43:31.348Z,2.30
2022-11-21T11:46:47.226Z,2.22
2022-11-21T11:49:55.248Z,1.45
2022-11-21T11:52:29.341Z,4.53
2022-11-21T11:55:02.604Z,4.38
2022-11-21T11:57:33.013Z,3.65
2022-11-21T12:00:33.773Z,2.60
2022-11-21T12:03:03.966Z,1.75
2022-11-21T12:05:33.233Z,2.53
2022-11-21T12:11:25.313Z,4.90
2022-11-21T12:13:56.655Z,1.50
2022-11-21T12:16:27.515Z,3.42
2022-11-21T12:19:08.645Z,2.08
2022-11-21T12:21:36.284Z,2.80
2022-11-21T12:24:10.104Z,2.45
2022-11-21T12:27:03.184Z,2.22
2022-11-21T12:29:33.162Z,1.63
2022-11-21T12:32:28.323Z,1.55
2022-11-21T12:35:21.601Z,1.35
2022-11-21T12:38:16.899Z,4.13
2022-11-21T12:41:23.780Z,1.50
2022-11-21T12:44:03.031Z,2.92
2022-11-21T12:46:53.310Z,2.17
2022-11-21T12:50:01.126Z,5.60
2022-11-21T12:52:56.366Z,2.03
2022-11-21T12:55:43.654Z,1.35
2022-11-21T12:58:39.109Z,17.38
2022-11-21T13:01:39.383Z,1.38
2022-11-21T13:04:13.665Z,2.33
2022-11-21T13:06:44.443Z,2.58
2022-11-21T13:09:19.300Z,0.80
2022-11-21T13:12:03.182Z,2.05
2022-11-21T13:14:42.342Z,1.17
2022-11-21T13:17:27.569Z,1.10
2022-11-21T13:20:31.737Z,1.30
2022-11-21T13:23:02.134Z,1.30
2022-11-21T13:25:32.128Z,1.38
2022-11-21T13:28:14.104Z,1.90
2022-11-21T13:30:54.353Z,2.45
2022-11-21T13:33:37.413Z,6.57
2022-11-21T13:36:34.366Z,2.45
2022-11-21T13:39:05.197Z,2.00
2022-11-21T13:41:53.750Z,4.35
2022-11-21T13:44:34.010Z,2.53
2022-11-21T13:47:11.242Z,2.60
2022-11-21T13:49:44.986Z,1.90
2022-11-21T13:52:32.262Z,3.00
2022-11-21T13:55:44.414Z,3.90
2022-11-21T13:58:38.876Z,4.07
2022-11-21T14:01:32.910Z,4.65
2022-11-21T14:04:09.793Z,2.67
2022-11-21T14:06:43.861Z,4.50
2022-11-21T14:09:14.195Z,2.90
2022-11-21T14:11:52.387Z,5.40
2022-11-21T14:14:47.462Z,2.70
2022-11-21T14:17:38.465Z,3.08
2022-11-21T14:20:14.687Z,5.73
2022-11-21T14:23:19.026Z,4.07
2022-11-21T14:25:54.408Z,7.38
2022-11-21T14:28:32.456Z,6.78
2022-11-21T14:31:04.706Z,8.00
2022-11-21T14:33:42.351Z,12.65
2022-11-21T14:36:15.858Z,8.25
2022-11-21T14:39:28.828Z,7.78
2022-11-21T14:44:19.488Z,8.38
2022-11-21T14:46:55.064Z,16.10
2022-11-21T14:49:29.691Z,5.32
2022-11-21T14:52:26.967Z,6.28
2022-11-21T14:57:45.194Z,6.15
2022-11-21T15:00:43.512Z,5.45
2022-11-21T15:03:03.830Z,5.07
2022-11-21T15:06:00.782Z,3.33
2022-11-21T15:11:13.864Z,4.80
2022-11-21T15:14:12.268Z,6.13
2022-11-21T15:16:30.625Z,2.80
2022-11-21T15:18:58.029Z,7.22
2022-11-21T15:21:25.187Z,8.48
2022-11-21T15:23:55.571Z,7.93
2022-11-21T15:26:34.248Z,6.10
2022-11-21T15:29:01.540Z,7.38
2022-11-21T15:31:29.210Z,3.33
2022-11-21T15:37:15.386Z,12.05
2022-11-21T15:39:51.977Z,13.30
2022-11-21T15:42:36.724Z,4.88
2022-11-21T15:45:26.759Z,5.63
2022-11-21T15:47:55.671Z,5.95
2022-11-21T15:50:25.151Z,6.47
2022-11-21T15:52:54.203Z,3.25
2022-11-21T15:55:29.276Z,9.95
2022-11-21T15:57:56.451Z,5.75
2022-11-21T16:00:23.658Z,4.78
2022-11-21T16:02:50.917Z,9.13
2022-11-21T16:05:18.766Z,9.68
2022-11-21T16:07:53.052Z,7.18
2022-11-21T16:10:27.424Z,7.60
2022-11-21T16:12:57.378Z,7.60
2022-11-21T16:15:25.188Z,6.53
2022-11-21T16:17:53.133Z,6.57
2022-11-21T16:20:20.654Z,7.20
2022-11-21T16:22:48.285Z,9.18
2022-11-21T16:25:17.207Z,6.18
2022-11-21T16:27:47.873Z,4.20
2022-11-21T16:30:16.052Z,7.45
2022-11-21T16:32:43.476Z,5.78
2022-11-21T16:35:12.238Z,5.38
2022-11-21T16:37:42.061Z,6.38
2022-11-21T16:40:11.002Z,4.88
2022-11-21T16:42:38.332Z,5.25
2022-11-21T16:45:06.005Z,6.88
2022-11-21T16:47:42.068Z,8.48
2022-11-21T16:50:16.558Z,4.80
2022-11-21T16:52:49.718Z,4.55
2022-11-21T16:55:17.976Z,8.75
2022-11-21T16:57:45.206Z,9.07
2022-11-21T17:00:12.463Z,15.00
2022-11-21T17:02:39.542Z,24.00
2022-11-21T17:05:07.373Z,12.02
2022-11-21T17:07:36.822Z,15.70
2022-11-21T17:10:05.810Z,5.20
2022-11-21T17:12:40.147Z,13.88
2022-11-21T17:15:11.561Z,5.78
2022-11-21T17:17:39.104Z,6.40
2022-11-21T17:20:08.363Z,14.27
2022-11-21T17:22:37.500Z,4.75
2022-11-21T17:25:05.313Z,4.90
2022-11-21T17:27:32.713Z,6.75
2022-11-21T17:29:59.859Z,6.63
2022-11-21T17:32:26.953Z,5.20
2022-11-21T17:34:54.017Z,7.20
2022-11-21T17:37:21.494Z,5.45
2022-11-21T17:39:48.867Z,5.80
2022-11-21T17:42:16.089Z,8.40
2022-11-21T17:44:43.167Z,9.57
2022-11-21T17:47:10.553Z,7.80
2022-11-21T17:49:37.775Z,7.35
2022-11-21T17:52:07.151Z,7.03
2022-11-21T17:54:34.465Z,9.77
2022-11-21T17:57:04.452Z,3.28
2022-11-21T17:59:32.958Z,3.00
2022-11-21T18:02:03.292Z,3.38
2022-11-21T18:04:30.392Z,6.60
2022-11-21T18:06:59.520Z,6.68
2022-11-21T18:09:26.799Z,6.15
2022-11-21T18:11:54.102Z,8.02
2022-11-21T18:14:22.557Z,7.03
2022-11-21T18:16:53.400Z,6.38
2022-11-21T18:19:21.178Z,7.78
2022-11-21T18:21:48.522Z,8.50
2022-11-21T18:24:15.473Z,8.10
2022-11-21T18:26:42.428Z,14.05
2022-11-21T18:32:06.059Z,14.55
2022-11-21T18:34:33.270Z,7.57
2022-11-21T18:37:00.251Z,6.97
2022-11-21T18:39:27.367Z,6.93
2022-11-21T18:41:54.560Z,5.05
2022-11-21T18:44:22.478Z,9.98
2022-11-21T18:46:50.024Z,5.95
2022-11-21T18:49:19.466Z,5.40
2022-11-21T18:51:46.425Z,8.07
2022-11-21T18:54:13.909Z,11.18
2022-11-21T18:56:41.508Z,12.82
2022-11-21T18:59:08.496Z,8.50
2022-11-21T19:01:40.138Z,6.28
2022-11-21T19:04:07.887Z,8.88
2022-11-21T19:06:35.007Z,12.45
2022-11-21T19:09:02.207Z,9.90
2022-11-21T19:11:30.350Z,9.27
2022-11-21T19:14:00.580Z,8.88
2022-11-21T19:16:31.310Z,10.88
2022-11-21T19:21:49.518Z,7.68
2022-11-21T19:24:17.309Z,7.15
2022-11-21T19:26:50.637Z,6.90
2022-11-21T19:29:17.874Z,7.47
2022-11-21T19:31:46.103Z,10.63
2022-11-21T19:34:16.973Z,12.25
2022-11-21T19:36:44.883Z,10.52
2022-11-21T19:39:12.339Z,12.20
2022-11-21T19:41:39.493Z,18.98
2022-11-21T19:44:06.612Z,18.50
2022-11-21T19:46:38.565Z,14.52
2022-11-21T19:49:19.388Z,10.90
2022-11-21T19:51:46.351Z,10.75
2022-11-21T19:54:13.899Z,8.93
2022-11-21T19:56:40.919Z,9.80
2022-11-21T19:59:10.395Z,9.60
2022-11-21T20:01:38.688Z,9.38
2022-11-21T20:04:07.457Z,9.63
2022-11-21T20:06:37.329Z,10.07
2022-11-21T20:09:07.306Z,8.35
2022-11-21T20:11:35.388Z,9.85
2022-11-21T20:14:03.047Z,12.02
2022-11-21T20:16:33.241Z,7.55
2022-11-21T20:19:03.380Z,14.15
2022-11-21T20:21:32.121Z,19.90
2022-11-21T20:24:00.965Z,14.95
2022-11-21T20:26:28.476Z,10.38
2022-11-21T20:28:55.979Z,11.15
2022-11-21T20:31:29.048Z,13.43
2022-11-21T20:34:04.444Z,12.43
2022-11-21T20:36:34.203Z,13.35
2022-11-21T20:39:05.486Z,14.60
2022-11-21T20:41:35.846Z,9.68
2022-11-21T20:46:57.246Z,10.10
2022-11-21T20:49:27.154Z,12.70
2022-11-21T20:53:43.883Z,9.13
2022-11-21T20:54:41.318Z,9.27
2022-11-21T20:57:14.297Z,8.23
2022-11-21T20:59:45.414Z,8.27
2022-11-21T21:02:14.215Z,7.70
2022-11-21T21:04:42.460Z,9.05
2022-11-21T21:07:09.696Z,11.23
2022-11-21T21:09:36.856Z,8.77
2022-11-21T21:12:05.427Z,7.88
2022-11-21T21:14:32.516Z,7.45
2022-11-21T21:16:59.549Z,10.85
2022-11-21T21:19:26.780Z,8.77
2022-11-21T21:21:54.049Z,10.75
2022-11-21T21:24:20.997Z,8.98
2022-11-21T21:26:49.577Z,8.20
2022-11-21T21:29:19.569Z,7.90
2022-11-21T21:31:52.390Z,8.40
2022-11-21T21:34:23.338Z,9.43
2022-11-21T21:36:51.460Z,9.77
2022-11-21T21:39:18.655Z,11.85
2022-11-21T21:41:47.338Z,13.63
2022-11-21T21:44:15.419Z,13.77
2022-11-21T21:46:43.032Z,15.82
2022-11-21T21:49:10.062Z,14.20
2022-11-21T21:51:37.860Z,10.48
2022-11-21T21:54:05.298Z,8.43
2022-11-21T21:56:33.847Z,7.45
2022-11-21T21:59:00.952Z,6.53
2022-11-21T22:01:30.636Z,7.82
2022-11-21T22:04:02.815Z,11.60
2022-11-21T22:06:31.464Z,8.20
2022-11-21T22:09:01.465Z,7.70
2022-11-21T22:11:31.757Z,9.13
2022-11-21T22:14:02.905Z,8.43
2022-11-21T22:16:30.724Z,9.80
2022-11-21T22:18:58.126Z,9.25
2022-11-21T22:21:32.594Z,10.05
2022-11-21T22:26:48.409Z,9.98
2022-11-21T22:29:15.242Z,14.10
2022-11-21T22:31:42.056Z,13.63
2022-11-21T22:34:12.329Z,9.68
2022-11-21T22:36:39.410Z,9.80
2022-11-21T22:39:07.515Z,9.65
2022-11-21T22:41:34.633Z,12.23
2022-11-21T22:44:01.733Z,10.48
2022-11-21T22:46:29.702Z,9.02
2022-11-21T22:48:56.803Z,9.50
2022-11-21T22:51:26.494Z,8.30
2022-11-21T22:53:53.676Z,10.50
2022-11-21T22:56:23.139Z,12.00
2022-11-21T22:58:51.014Z,15.48
2022-11-21T23:01:20.693Z,14.75
2022-11-21T23:03:48.279Z,13.52
2022-11-21T23:06:17.962Z,10.25
2022-11-21T23:08:45.578Z,11.45
2022-11-21T23:11:31.620Z,14.50
2022-11-21T23:14:00.000Z,15.50
2022-11-21T23:16:26.972Z,11.95
2022-11-21T23:18:55.050Z,12.20
2022-11-21T23:21:22.581Z,9.63
2022-11-21T23:23:50.151Z,14.77
2022-11-21T23:26:17.335Z,12.73
2022-11-21T23:28:44.463Z,13.73
2022-11-21T23:31:11.619Z,9.50
2022-11-21T23:33:38.675Z,11.57
2022-11-21T23:36:05.904Z,9.90
2022-11-21T23:38:32.904Z,11.68
2022-11-21T23:40:59.735Z,8.88
2022-11-21T23:43:27.314Z,13.23
2022-11-21T23:45:54.998Z,8.73
2022-11-21T23:48:24.404Z,10.15
2022-11-21T23:50:51.774Z,8.95
2022-11-21T23:53:19.868Z,13.13
2022-11-21T23:55:47.055Z,11.50
2022-11-21T23:58:14.401Z,8.98
